Montgomery, IN

12:01 PM EST on March 03, 2015 (GMT -0500)
White Ridge | Change Station
CLOSE
Current Station
Personal Weather Station
Location: Washington, IN
Elevation: 528 ft
Nearby Weather Stations
Active Advisory: Winter Storm Watch

Elev 528 ft 38.66 °N, 87.14 °W | Updated 28 seconds ago

Overcast
Overcast
41.4 °F
Feels Like 35 °F
N
10.3
Wind Variable Wind from WSW
Gusts 12.3 mph

Today
High -- | Low -- °F
--% Chance of Precip.
Yesterday
High -- | Low -- °F
Precip. -- in
7:17 AM 6:42 PM
Waxing Gibbous, 96% visible
Pressure 29.88 in
Visibility 4.0 miles
Clouds Overcast 600 ft
Windchill 35 °F
Dew Point 40 °F
Humidity 94%
Rainfall 0.05 in
Snow Depth Not available.
UV 2.0 out of 12
Pollen .10 out of 12
Air Quality Not available.
Flu Activity Not available.
METAR KDCY 031635Z AUTO 19018KT 4SM -DZ OVC006 04/02 A2988 RMK AO2 T00360017

More Conditions Fewer Conditions

Pressure 29.88 in
Visibility 4.0 miles
Clouds Overcast 600 ft
Windchill 35 °F
Dew Point 40 °F
Humidity 94%
Rainfall 0.05 in
Snow Depth Not available.
UV 2.0 out of 12
Pollen .10 out of 12
Air Quality Not available.
Flu Activity Not available.
METAR KDCY 031635Z AUTO 19018KT 4SM -DZ OVC006 04/02 A2988 RMK AO2 T00360017

More Conditions Fewer Conditions

10-Day Weather Forecast

Almanac

Astronomy

Mar. 03, 2015 Rise Set
Actual Time
Civil Twilight
Nautical Twilight
Astronomical Twilight
Moon
Length of Visible Light
Length of Day
Tomorrow will be .
, % of the Moon is Illuminated

Today's Extremes

State Highs State Lows

Community

WunderPhotos

Upload Photos

1,802,172 photos uploaded!

WunderBlogs® & News

Nearby

Air Quality

  Air Quality AQ Index Pollutant
Not available.

Snow Depth

Station Depth Elevation

Earthquake Activity

City Distance Mag. Time & Date
Minimum magnitude displayed is 2.5.

Coastal Water Temperatures

Place Temperature

Nearby Weather Stations

Winter Storm Watch
Statement as of 11:57 AM EST on March 03, 2015

... Winter Storm Watch remains in effect from Wednesday afternoon
through Thursday morning...
... Freezing Rain Advisory is cancelled...

The National Weather Service in Indianapolis has cancelled the
Freezing Rain Advisory. A Winter Storm Watch remains in effect
from Wednesday afternoon through Thursday morning.

A Winter Storm Watch remains in effect from Wednesday afternoon
through Thursday morning.

* Main impact: accumulating snow may make travel difficult
Wednesday afternoon into Thursday.

* Accumulations: up to 6 inches of snow possible Wednesday
afternoon into Thursday.

* Timing: snow will develop Wednesday afternoon and continue into
early Thursday.

* Other impacts: existing snow may clog street drains and cause
flooding... especially in low lying areas.


Precautionary/preparedness actions...

A Winter Storm Watch means there is a potential for significant
snow... sleet... or ice accumulations that may impact travel.
Continue to monitor the latest forecasts.